sensor_id;sensor_type;location;lat;lon;timestamp;P1;durP1;ratioP1;P2;durP2;ratioP2
6017;SDS011;3037;51.068;13.780;2022-10-22T00:01:50;39.33;;;21.53;;
6017;SDS011;3037;51.068;13.780;2022-10-22T00:04:16;34.33;;;21.60;;
6017;SDS011;3037;51.068;13.780;2022-10-22T00:06:41;39.50;;;23.40;;
6017;SDS011;3037;51.068;13.780;2022-10-22T00:09:09;40.30;;;25.13;;
6017;SDS011;3037;51.068;13.780;2022-10-22T00:11:37;37.70;;;24.97;;
6017;SDS011;3037;51.068;13.780;2022-10-22T00:14:03;41.63;;;24.57;;
6017;SDS011;3037;51.068;13.780;2022-10-22T00:16:29;44.30;;;24.90;;
6017;SDS011;3037;51.068;13.780;2022-10-22T00:18:55;40.40;;;23.53;;
6017;SDS011;3037;51.068;13.780;2022-10-22T00:21:20;39.70;;;22.60;;
6017;SDS011;3037;51.068;13.780;2022-10-22T00:23:46;38.27;;;23.73;;
6017;SDS011;3037;51.068;13.780;2022-10-22T00:26:11;47.40;;;23.87;;
6017;SDS011;3037;51.068;13.780;2022-10-22T00:28:37;38.10;;;24.03;;
6017;SDS011;3037;51.068;13.780;2022-10-22T00:31:03;44.43;;;25.70;;
6017;SDS011;3037;51.068;13.780;2022-10-22T00:33:29;38.67;;;24.57;;
6017;SDS011;3037;51.068;13.780;2022-10-22T00:35:55;38.77;;;25.03;;
6017;SDS011;3037;51.068;13.780;2022-10-22T00:38:21;45.00;;;24.77;;
6017;SDS011;3037;51.068;13.780;2022-10-22T00:40:46;37.17;;;24.30;;
6017;SDS011;3037;51.068;13.780;2022-10-22T00:43:12;39.27;;;24.40;;
6017;SDS011;3037;51.068;13.780;2022-10-22T00:45:40;40.03;;;24.00;;
6017;SDS011;3037;51.068;13.780;2022-10-22T00:48:08;36.70;;;23.50;;
6017;SDS011;3037;51.068;13.780;2022-10-22T00:50:37;40.80;;;24.37;;
6017;SDS011;3037;51.068;13.780;2022-10-22T00:53:06;41.93;;;24.93;;
6017;SDS011;3037;51.068;13.780;2022-10-22T00:55:37;43.03;;;26.20;;
6017;SDS011;3037;51.068;13.780;2022-10-22T00:58:03;45.90;;;28.10;;
6017;SDS011;3037;51.068;13.780;2022-10-22T01:00:29;54.73;;;27.73;;
6017;SDS011;3037;51.068;13.780;2022-10-22T01:02:55;50.73;;;26.70;;
6017;SDS011;3037;51.068;13.780;2022-10-22T01:05:21;45.23;;;26.30;;
6017;SDS011;3037;51.068;13.780;2022-10-22T01:07:48;50.17;;;27.33;;
6017;SDS011;3037;51.068;13.780;2022-10-22T01:13:16;51.60;;;27.30;;
6017;SDS011;3037;51.068;13.780;2022-10-22T01:15:54;56.63;;;29.67;;
6017;SDS011;3037;51.068;13.780;2022-10-22T01:18:36;50.87;;;28.57;;
6017;SDS011;3037;51.068;13.780;2022-10-22T01:24:22;50.90;;;28.60;;
6017;SDS011;3037;51.068;13.780;2022-10-22T01:27:30;52.83;;;29.63;;
6017;SDS011;3037;51.068;13.780;2022-10-22T01:32:32;54.03;;;28.43;;
6017;SDS011;3037;51.068;13.780;2022-10-22T01:35:04;50.93;;;28.50;;
6017;SDS011;3037;51.068;13.780;2022-10-22T01:37:34;40.20;;;25.97;;
6017;SDS011;3037;51.068;13.780;2022-10-22T01:40:05;44.50;;;27.60;;
6017;SDS011;3037;51.068;13.780;2022-10-22T01:42:32;52.30;;;29.57;;
6017;SDS011;3037;51.068;13.780;2022-10-22T01:44:58;53.03;;;27.93;;
6017;SDS011;3037;51.068;13.780;2022-10-22T01:53:06;48.47;;;28.40;;
6017;SDS011;3037;51.068;13.780;2022-10-22T01:55:38;53.00;;;29.53;;
6017;SDS011;3037;51.068;13.780;2022-10-22T01:58:25;57.17;;;29.23;;
6017;SDS011;3037;51.068;13.780;2022-10-22T02:01:13;45.43;;;27.03;;
6017;SDS011;3037;51.068;13.780;2022-10-22T02:03:45;51.67;;;29.50;;
6017;SDS011;3037;51.068;13.780;2022-10-22T02:06:22;49.67;;;27.50;;
6017;SDS011;3037;51.068;13.780;2022-10-22T02:08:49;51.07;;;30.27;;
6017;SDS011;3037;51.068;13.780;2022-10-22T02:11:17;56.23;;;31.27;;
6017;SDS011;3037;51.068;13.780;2022-10-22T02:13:44;56.03;;;30.53;;
6017;SDS011;3037;51.068;13.780;2022-10-22T02:16:13;43.67;;;26.90;;
6017;SDS011;3037;51.068;13.780;2022-10-22T02:18:47;54.43;;;28.20;;
6017;SDS011;3037;51.068;13.780;2022-10-22T02:21:16;45.40;;;27.30;;
6017;SDS011;3037;51.068;13.780;2022-10-22T02:23:41;45.47;;;27.03;;
6017;SDS011;3037;51.068;13.780;2022-10-22T02:26:10;48.87;;;26.40;;
6017;SDS011;3037;51.068;13.780;2022-10-22T02:29:02;43.67;;;25.73;;
6017;SDS011;3037;51.068;13.780;2022-10-22T02:31:38;40.23;;;25.30;;
6017;SDS011;3037;51.068;13.780;2022-10-22T02:34:09;44.70;;;24.80;;
6017;SDS011;3037;51.068;13.780;2022-10-22T02:36:38;40.80;;;25.70;;
6017;SDS011;3037;51.068;13.780;2022-10-22T02:39:06;40.30;;;25.87;;
6017;SDS011;3037;51.068;13.780;2022-10-22T02:41:32;38.57;;;24.00;;
6017;SDS011;3037;51.068;13.780;2022-10-22T02:43:59;42.20;;;26.00;;
6017;SDS011;3037;51.068;13.780;2022-10-22T02:46:26;41.27;;;25.60;;
6017;SDS011;3037;51.068;13.780;2022-10-22T02:48:52;40.97;;;24.83;;
6017;SDS011;3037;51.068;13.780;2022-10-22T02:51:18;42.93;;;26.00;;
6017;SDS011;3037;51.068;13.780;2022-10-22T02:53:44;42.37;;;25.37;;
6017;SDS011;3037;51.068;13.780;2022-10-22T02:56:09;52.67;;;25.70;;
6017;SDS011;3037;51.068;13.780;2022-10-22T02:58:35;44.50;;;25.57;;
6017;SDS011;3037;51.068;13.780;2022-10-22T03:01:01;48.67;;;25.30;;
6017;SDS011;3037;51.068;13.780;2022-10-22T03:03:26;39.30;;;24.70;;
6017;SDS011;3037;51.068;13.780;2022-10-22T03:05:52;41.27;;;25.37;;
6017;SDS011;3037;51.068;13.780;2022-10-22T03:08:17;47.00;;;24.80;;
6017;SDS011;3037;51.068;13.780;2022-10-22T03:10:43;44.10;;;26.50;;
6017;SDS011;3037;51.068;13.780;2022-10-22T03:13:09;42.50;;;25.57;;
6017;SDS011;3037;51.068;13.780;2022-10-22T03:15:34;43.03;;;25.83;;
6017;SDS011;3037;51.068;13.780;2022-10-22T03:18:00;50.30;;;26.23;;
6017;SDS011;3037;51.068;13.780;2022-10-22T03:20:26;41.50;;;27.90;;
6017;SDS011;3037;51.068;13.780;2022-10-22T03:22:51;53.20;;;27.03;;
6017;SDS011;3037;51.068;13.780;2022-10-22T03:25:18;46.50;;;25.77;;
6017;SDS011;3037;51.068;13.780;2022-10-22T03:27:46;48.17;;;27.33;;
6017;SDS011;3037;51.068;13.780;2022-10-22T03:30:14;47.37;;;27.67;;
6017;SDS011;3037;51.068;13.780;2022-10-22T03:32:40;46.97;;;27.60;;
6017;SDS011;3037;51.068;13.780;2022-10-22T03:35:05;37.57;;;25.60;;
6017;SDS011;3037;51.068;13.780;2022-10-22T03:37:31;44.60;;;25.00;;
6017;SDS011;3037;51.068;13.780;2022-10-22T03:39:57;51.37;;;27.87;;
6017;SDS011;3037;51.068;13.780;2022-10-22T03:42:23;43.97;;;26.17;;
6017;SDS011;3037;51.068;13.780;2022-10-22T03:44:49;50.40;;;28.53;;
6017;SDS011;3037;51.068;13.780;2022-10-22T03:47:15;43.93;;;26.03;;
6017;SDS011;3037;51.068;13.780;2022-10-22T03:49:40;60.23;;;26.00;;
6017;SDS011;3037;51.068;13.780;2022-10-22T03:52:06;56.27;;;26.80;;
6017;SDS011;3037;51.068;13.780;2022-10-22T03:54:34;47.83;;;27.63;;
6017;SDS011;3037;51.068;13.780;2022-10-22T03:57:00;48.23;;;26.77;;
6017;SDS011;3037;51.068;13.780;2022-10-22T03:59:26;48.00;;;27.90;;
6017;SDS011;3037;51.068;13.780;2022-10-22T04:01:51;41.43;;;26.00;;
6017;SDS011;3037;51.068;13.780;2022-10-22T04:04:17;47.03;;;26.70;;
6017;SDS011;3037;51.068;13.780;2022-10-22T04:06:42;42.23;;;26.80;;
6017;SDS011;3037;51.068;13.780;2022-10-22T04:09:08;51.80;;;27.93;;
6017;SDS011;3037;51.068;13.780;2022-10-22T04:11:33;47.53;;;28.10;;
6017;SDS011;3037;51.068;13.780;2022-10-22T04:13:59;53.33;;;27.33;;
6017;SDS011;3037;51.068;13.780;2022-10-22T04:16:24;48.83;;;27.57;;
6017;SDS011;3037;51.068;13.780;2022-10-22T04:18:55;42.60;;;25.13;;
6017;SDS011;3037;51.068;13.780;2022-10-22T04:21:21;48.33;;;28.37;;
6017;SDS011;3037;51.068;13.780;2022-10-22T04:23:50;43.93;;;26.33;;
6017;SDS011;3037;51.068;13.780;2022-10-22T04:26:17;46.70;;;26.27;;
6017;SDS011;3037;51.068;13.780;2022-10-22T04:28:43;46.60;;;27.83;;
6017;SDS011;3037;51.068;13.780;2022-10-22T04:31:11;52.17;;;27.20;;
6017;SDS011;3037;51.068;13.780;2022-10-22T04:33:44;45.60;;;27.70;;
6017;SDS011;3037;51.068;13.780;2022-10-22T04:36:11;43.30;;;26.90;;
6017;SDS011;3037;51.068;13.780;2022-10-22T04:38:38;51.33;;;26.87;;
6017;SDS011;3037;51.068;13.780;2022-10-22T04:41:12;42.57;;;25.90;;
6017;SDS011;3037;51.068;13.780;2022-10-22T04:43:42;45.00;;;26.77;;
6017;SDS011;3037;51.068;13.780;2022-10-22T04:46:09;48.87;;;28.73;;
6017;SDS011;3037;51.068;13.780;2022-10-22T04:48:36;43.97;;;25.00;;
6017;SDS011;3037;51.068;13.780;2022-10-22T04:51:04;50.27;;;25.83;;
6017;SDS011;3037;51.068;13.780;2022-10-22T04:53:30;43.23;;;24.83;;
6017;SDS011;3037;51.068;13.780;2022-10-22T04:56:06;47.90;;;25.07;;
6017;SDS011;3037;51.068;13.780;2022-10-22T04:58:32;39.07;;;25.00;;
6017;SDS011;3037;51.068;13.780;2022-10-22T05:00:57;47.67;;;25.37;;
6017;SDS011;3037;51.068;13.780;2022-10-22T05:03:23;47.27;;;24.67;;
6017;SDS011;3037;51.068;13.780;2022-10-22T05:05:49;36.77;;;22.93;;
6017;SDS011;3037;51.068;13.780;2022-10-22T05:08:15;42.53;;;25.13;;
6017;SDS011;3037;51.068;13.780;2022-10-22T05:10:40;42.10;;;25.90;;
6017;SDS011;3037;51.068;13.780;2022-10-22T05:13:06;37.17;;;23.47;;
6017;SDS011;3037;51.068;13.780;2022-10-22T05:15:32;43.77;;;24.20;;
6017;SDS011;3037;51.068;13.780;2022-10-22T05:17:58;35.60;;;23.20;;
6017;SDS011;3037;51.068;13.780;2022-10-22T05:20:23;34.33;;;22.97;;
6017;SDS011;3037;51.068;13.780;2022-10-22T05:22:49;35.20;;;23.70;;
6017;SDS011;3037;51.068;13.780;2022-10-22T05:25:14;37.87;;;23.13;;
6017;SDS011;3037;51.068;13.780;2022-10-22T05:27:40;30.07;;;20.77;;
6017;SDS011;3037;51.068;13.780;2022-10-22T05:30:05;44.40;;;24.70;;
6017;SDS011;3037;51.068;13.780;2022-10-22T05:32:33;35.90;;;22.77;;
6017;SDS011;3037;51.068;13.780;2022-10-22T05:34:59;33.73;;;23.17;;
6017;SDS011;3037;51.068;13.780;2022-10-22T05:37:24;32.50;;;22.17;;
6017;SDS011;3037;51.068;13.780;2022-10-22T05:39:50;37.13;;;21.40;;
6017;SDS011;3037;51.068;13.780;2022-10-22T05:42:16;37.70;;;23.63;;
6017;SDS011;3037;51.068;13.780;2022-10-22T05:44:41;38.97;;;24.20;;
6017;SDS011;3037;51.068;13.780;2022-10-22T05:47:07;37.90;;;23.30;;
6017;SDS011;3037;51.068;13.780;2022-10-22T05:49:33;40.63;;;23.70;;
6017;SDS011;3037;51.068;13.780;2022-10-22T05:51:59;42.60;;;24.63;;
6017;SDS011;3037;51.068;13.780;2022-10-22T05:54:25;40.57;;;24.20;;
6017;SDS011;3037;51.068;13.780;2022-10-22T05:56:50;39.83;;;23.20;;
6017;SDS011;3037;51.068;13.780;2022-10-22T05:59:16;36.87;;;23.00;;
6017;SDS011;3037;51.068;13.780;2022-10-22T06:01:42;41.73;;;23.27;;
6017;SDS011;3037;51.068;13.780;2022-10-22T06:04:09;30.27;;;21.70;;
6017;SDS011;3037;51.068;13.780;2022-10-22T06:06:37;35.43;;;21.67;;
6017;SDS011;3037;51.068;13.780;2022-10-22T06:09:12;36.03;;;21.50;;
6017;SDS011;3037;51.068;13.780;2022-10-22T06:11:53;35.47;;;21.50;;
6017;SDS011;3037;51.068;13.780;2022-10-22T06:14:19;37.93;;;22.63;;
6017;SDS011;3037;51.068;13.780;2022-10-22T06:16:45;35.60;;;22.20;;
6017;SDS011;3037;51.068;13.780;2022-10-22T06:19:12;33.10;;;20.63;;
6017;SDS011;3037;51.068;13.780;2022-10-22T06:21:40;45.13;;;22.00;;
6017;SDS011;3037;51.068;13.780;2022-10-22T06:24:06;43.07;;;22.80;;
6017;SDS011;3037;51.068;13.780;2022-10-22T06:26:33;41.10;;;22.20;;
6017;SDS011;3037;51.068;13.780;2022-10-22T06:28:59;38.73;;;22.57;;
6017;SDS011;3037;51.068;13.780;2022-10-22T06:31:25;38.80;;;22.03;;
6017;SDS011;3037;51.068;13.780;2022-10-22T06:33:51;35.10;;;20.80;;
6017;SDS011;3037;51.068;13.780;2022-10-22T06:36:18;35.23;;;21.10;;
6017;SDS011;3037;51.068;13.780;2022-10-22T06:38:45;34.10;;;21.30;;
6017;SDS011;3037;51.068;13.780;2022-10-22T06:41:12;37.70;;;23.33;;
6017;SDS011;3037;51.068;13.780;2022-10-22T06:43:39;35.33;;;20.60;;
6017;SDS011;3037;51.068;13.780;2022-10-22T06:46:06;33.07;;;20.23;;
6017;SDS011;3037;51.068;13.780;2022-10-22T06:48:36;34.80;;;20.93;;
6017;SDS011;3037;51.068;13.780;2022-10-22T06:51:03;36.30;;;21.80;;
6017;SDS011;3037;51.068;13.780;2022-10-22T06:53:30;36.17;;;19.90;;
6017;SDS011;3037;51.068;13.780;2022-10-22T06:55:56;36.97;;;21.20;;
6017;SDS011;3037;51.068;13.780;2022-10-22T06:58:22;33.97;;;20.40;;
6017;SDS011;3037;51.068;13.780;2022-10-22T07:00:48;37.27;;;22.30;;
6017;SDS011;3037;51.068;13.780;2022-10-22T07:03:14;34.17;;;20.10;;
6017;SDS011;3037;51.068;13.780;2022-10-22T07:05:40;41.67;;;22.63;;
6017;SDS011;3037;51.068;13.780;2022-10-22T07:08:07;35.23;;;20.67;;
6017;SDS011;3037;51.068;13.780;2022-10-22T07:10:32;34.73;;;21.37;;
6017;SDS011;3037;51.068;13.780;2022-10-22T07:12:58;28.47;;;19.00;;
6017;SDS011;3037;51.068;13.780;2022-10-22T07:15:23;36.40;;;20.07;;
6017;SDS011;3037;51.068;13.780;2022-10-22T07:17:49;40.73;;;20.77;;
6017;SDS011;3037;51.068;13.780;2022-10-22T07:20:18;34.87;;;19.77;;
6017;SDS011;3037;51.068;13.780;2022-10-22T07:22:45;39.10;;;20.63;;
6017;SDS011;3037;51.068;13.780;2022-10-22T07:25:11;40.40;;;22.57;;
6017;SDS011;3037;51.068;13.780;2022-10-22T07:27:36;38.20;;;22.87;;
6017;SDS011;3037;51.068;13.780;2022-10-22T07:30:02;41.47;;;22.30;;
6017;SDS011;3037;51.068;13.780;2022-10-22T07:32:28;34.50;;;21.63;;
6017;SDS011;3037;51.068;13.780;2022-10-22T07:34:53;39.17;;;19.13;;
6017;SDS011;3037;51.068;13.780;2022-10-22T07:37:19;42.50;;;20.10;;
6017;SDS011;3037;51.068;13.780;2022-10-22T07:39:46;38.47;;;22.03;;
6017;SDS011;3037;51.068;13.780;2022-10-22T07:42:12;33.20;;;20.83;;
6017;SDS011;3037;51.068;13.780;2022-10-22T07:44:38;39.50;;;23.60;;
6017;SDS011;3037;51.068;13.780;2022-10-22T07:47:03;35.20;;;22.67;;
6017;SDS011;3037;51.068;13.780;2022-10-22T07:49:29;33.10;;;20.63;;
6017;SDS011;3037;51.068;13.780;2022-10-22T07:51:54;33.63;;;20.77;;
6017;SDS011;3037;51.068;13.780;2022-10-22T07:54:20;33.03;;;21.03;;
6017;SDS011;3037;51.068;13.780;2022-10-22T07:56:46;35.70;;;22.50;;
6017;SDS011;3037;51.068;13.780;2022-10-22T07:59:12;45.80;;;23.70;;
6017;SDS011;3037;51.068;13.780;2022-10-22T08:01:38;51.13;;;25.83;;
6017;SDS011;3037;51.068;13.780;2022-10-22T08:04:03;47.93;;;27.10;;
6017;SDS011;3037;51.068;13.780;2022-10-22T08:06:32;47.63;;;25.73;;
6017;SDS011;3037;51.068;13.780;2022-10-22T08:08:58;45.93;;;26.80;;
6017;SDS011;3037;51.068;13.780;2022-10-22T08:11:23;42.90;;;26.47;;
6017;SDS011;3037;51.068;13.780;2022-10-22T08:13:50;47.70;;;27.30;;
6017;SDS011;3037;51.068;13.780;2022-10-22T08:16:16;118.70;;;32.53;;
6017;SDS011;3037;51.068;13.780;2022-10-22T08:18:42;56.97;;;31.73;;
6017;SDS011;3037;51.068;13.780;2022-10-22T08:21:07;60.10;;;33.37;;
6017;SDS011;3037;51.068;13.780;2022-10-22T08:23:33;66.90;;;32.50;;
6017;SDS011;3037;51.068;13.780;2022-10-22T08:25:58;67.37;;;34.80;;
6017;SDS011;3037;51.068;13.780;2022-10-22T08:28:24;64.37;;;31.50;;
6017;SDS011;3037;51.068;13.780;2022-10-22T08:30:52;44.03;;;27.17;;
6017;SDS011;3037;51.068;13.780;2022-10-22T08:33:18;67.77;;;31.20;;
6017;SDS011;3037;51.068;13.780;2022-10-22T08:35:47;54.30;;;26.70;;
6017;SDS011;3037;51.068;13.780;2022-10-22T08:38:13;50.03;;;28.27;;
6017;SDS011;3037;51.068;13.780;2022-10-22T08:40:39;46.93;;;24.50;;
6017;SDS011;3037;51.068;13.780;2022-10-22T08:51:17;46.10;;;28.97;;
6017;SDS011;3037;51.068;13.780;2022-10-22T08:56:44;131.80;;;55.57;;
6017;SDS011;3037;51.068;13.780;2022-10-22T08:59:16;45.63;;;26.83;;
6017;SDS011;3037;51.068;13.780;2022-10-22T09:02:02;37.53;;;23.80;;
6017;SDS011;3037;51.068;13.780;2022-10-22T09:04:39;44.37;;;26.80;;
6017;SDS011;3037;51.068;13.780;2022-10-22T09:07:12;67.60;;;35.20;;
6017;SDS011;3037;51.068;13.780;2022-10-22T09:09:39;33.90;;;20.63;;
6017;SDS011;3037;51.068;13.780;2022-10-22T09:12:13;43.67;;;22.53;;
6017;SDS011;3037;51.068;13.780;2022-10-22T09:14:40;36.37;;;18.93;;
6017;SDS011;3037;51.068;13.780;2022-10-22T09:22:51;26.20;;;20.37;;
6017;SDS011;3037;51.068;13.780;2022-10-22T09:25:40;51.33;;;30.57;;
6017;SDS011;3037;51.068;13.780;2022-10-22T09:28:07;55.50;;;30.67;;
6017;SDS011;3037;51.068;13.780;2022-10-22T09:30:35;43.50;;;23.77;;
6017;SDS011;3037;51.068;13.780;2022-10-22T09:35:34;26.33;;;16.30;;
6017;SDS011;3037;51.068;13.780;2022-10-22T09:38:10;20.73;;;16.37;;
6017;SDS011;3037;51.068;13.780;2022-10-22T09:40:48;28.20;;;19.60;;
6017;SDS011;3037;51.068;13.780;2022-10-22T09:43:15;25.40;;;18.53;;
6017;SDS011;3037;51.068;13.780;2022-10-22T09:45:42;40.77;;;22.23;;
6017;SDS011;3037;51.068;13.780;2022-10-22T09:48:09;43.07;;;22.37;;
6017;SDS011;3037;51.068;13.780;2022-10-22T09:53:21;24.17;;;18.77;;
6017;SDS011;3037;51.068;13.780;2022-10-22T09:55:52;23.53;;;15.90;;
6017;SDS011;3037;51.068;13.780;2022-10-22T09:58:19;25.43;;;16.20;;
6017;SDS011;3037;51.068;13.780;2022-10-22T10:00:46;26.37;;;15.43;;
6017;SDS011;3037;51.068;13.780;2022-10-22T10:03:17;32.00;;;15.07;;
6017;SDS011;3037;51.068;13.780;2022-10-22T10:05:46;19.83;;;15.07;;
6017;SDS011;3037;51.068;13.780;2022-10-22T10:08:15;17.87;;;12.63;;
6017;SDS011;3037;51.068;13.780;2022-10-22T10:13:34;16.77;;;12.67;;
6017;SDS011;3037;51.068;13.780;2022-10-22T10:19:07;14.80;;;12.30;;
6017;SDS011;3037;51.068;13.780;2022-10-22T10:22:18;18.37;;;12.27;;
6017;SDS011;3037;51.068;13.780;2022-10-22T10:24:59;11.87;;;10.53;;
6017;SDS011;3037;51.068;13.780;2022-10-22T10:27:48;17.30;;;9.33;;
6017;SDS011;3037;51.068;13.780;2022-10-22T10:30:23;15.80;;;10.20;;
6017;SDS011;3037;51.068;13.780;2022-10-22T10:33:07;11.70;;;9.53;;
6017;SDS011;3037;51.068;13.780;2022-10-22T10:35:45;16.53;;;11.00;;
6017;SDS011;3037;51.068;13.780;2022-10-22T10:38:32;12.70;;;10.73;;
6017;SDS011;3037;51.068;13.780;2022-10-22T10:41:30;11.67;;;8.13;;
6017;SDS011;3037;51.068;13.780;2022-10-22T10:46:58;12.70;;;8.87;;
6017;SDS011;3037;51.068;13.780;2022-10-22T10:49:37;10.10;;;9.10;;
6017;SDS011;3037;51.068;13.780;2022-10-22T11:00:54;7.90;;;7.10;;
6017;SDS011;3037;51.068;13.780;2022-10-22T11:06:06;10.10;;;7.03;;
6017;SDS011;3037;51.068;13.780;2022-10-22T11:08:37;9.80;;;7.80;;
6017;SDS011;3037;51.068;13.780;2022-10-22T11:13:52;7.23;;;6.20;;
6017;SDS011;3037;51.068;13.780;2022-10-22T11:16:27;8.00;;;6.33;;
6017;SDS011;3037;51.068;13.780;2022-10-22T11:19:22;7.53;;;6.57;;
6017;SDS011;3037;51.068;13.780;2022-10-22T11:21:57;7.57;;;6.80;;
6017;SDS011;3037;51.068;13.780;2022-10-22T11:24:40;7.90;;;6.90;;
6017;SDS011;3037;51.068;13.780;2022-10-22T11:27:20;8.93;;;7.37;;
6017;SDS011;3037;51.068;13.780;2022-10-22T11:30:04;13.23;;;7.93;;
6017;SDS011;3037;51.068;13.780;2022-10-22T11:32:32;6.70;;;6.10;;
6017;SDS011;3037;51.068;13.780;2022-10-22T11:35:00;7.63;;;6.93;;
6017;SDS011;3037;51.068;13.780;2022-10-22T11:37:29;13.43;;;8.30;;
6017;SDS011;3037;51.068;13.780;2022-10-22T11:40:04;8.50;;;7.77;;
6017;SDS011;3037;51.068;13.780;2022-10-22T11:42:54;9.53;;;7.50;;
6017;SDS011;3037;51.068;13.780;2022-10-22T11:47:58;9.50;;;8.60;;
6017;SDS011;3037;51.068;13.780;2022-10-22T11:50:43;9.33;;;8.43;;
6017;SDS011;3037;51.068;13.780;2022-10-22T11:55:45;11.80;;;8.27;;
6017;SDS011;3037;51.068;13.780;2022-10-22T12:00:55;11.17;;;9.03;;
6017;SDS011;3037;51.068;13.780;2022-10-22T12:03:46;12.70;;;8.97;;
6017;SDS011;3037;51.068;13.780;2022-10-22T12:08:45;10.87;;;9.73;;
6017;SDS011;3037;51.068;13.780;2022-10-22T12:21:58;11.93;;;9.27;;
6017;SDS011;3037;51.068;13.780;2022-10-22T12:24:36;10.73;;;9.50;;
6017;SDS011;3037;51.068;13.780;2022-10-22T12:27:21;12.80;;;8.40;;
6017;SDS011;3037;51.068;13.780;2022-10-22T12:29:53;11.20;;;8.60;;
6017;SDS011;3037;51.068;13.780;2022-10-22T12:32:20;8.60;;;7.87;;
6017;SDS011;3037;51.068;13.780;2022-10-22T12:34:48;7.13;;;6.63;;
6017;SDS011;3037;51.068;13.780;2022-10-22T12:37:15;11.70;;;7.87;;
6017;SDS011;3037;51.068;13.780;2022-10-22T12:39:43;8.23;;;7.10;;
6017;SDS011;3037;51.068;13.780;2022-10-22T12:42:12;12.47;;;7.00;;
6017;SDS011;3037;51.068;13.780;2022-10-22T12:44:41;8.13;;;5.70;;
6017;SDS011;3037;51.068;13.780;2022-10-22T12:47:09;5.90;;;5.40;;
6017;SDS011;3037;51.068;13.780;2022-10-22T12:49:43;5.80;;;5.40;;
6017;SDS011;3037;51.068;13.780;2022-10-22T12:52:14;6.43;;;5.93;;
6017;SDS011;3037;51.068;13.780;2022-10-22T12:54:43;7.77;;;5.87;;
6017;SDS011;3037;51.068;13.780;2022-10-22T12:57:15;6.53;;;6.00;;
6017;SDS011;3037;51.068;13.780;2022-10-22T12:59:44;7.10;;;6.13;;
6017;SDS011;3037;51.068;13.780;2022-10-22T13:02:19;7.23;;;5.43;;
6017;SDS011;3037;51.068;13.780;2022-10-22T13:07:52;6.07;;;5.47;;
6017;SDS011;3037;51.068;13.780;2022-10-22T13:10:30;7.00;;;4.93;;
6017;SDS011;3037;51.068;13.780;2022-10-22T13:12:57;5.10;;;4.70;;
6017;SDS011;3037;51.068;13.780;2022-10-22T13:18:00;6.07;;;5.53;;
6017;SDS011;3037;51.068;13.780;2022-10-22T13:20:29;11.57;;;5.50;;
6017;SDS011;3037;51.068;13.780;2022-10-22T13:22:55;7.47;;;4.80;;
6017;SDS011;3037;51.068;13.780;2022-10-22T13:25:33;6.13;;;5.67;;
6017;SDS011;3037;51.068;13.780;2022-10-22T13:28:17;7.20;;;5.83;;
6017;SDS011;3037;51.068;13.780;2022-10-22T13:30:52;4.83;;;4.53;;
6017;SDS011;3037;51.068;13.780;2022-10-22T13:33:23;5.00;;;4.13;;
6017;SDS011;3037;51.068;13.780;2022-10-22T13:36:00;6.30;;;4.73;;
6017;SDS011;3037;51.068;13.780;2022-10-22T13:38:26;3.70;;;3.47;;
6017;SDS011;3037;51.068;13.780;2022-10-22T13:40:52;4.63;;;4.20;;
6017;SDS011;3037;51.068;13.780;2022-10-22T13:43:19;3.80;;;3.60;;
6017;SDS011;3037;51.068;13.780;2022-10-22T13:45:46;3.13;;;2.87;;
6017;SDS011;3037;51.068;13.780;2022-10-22T13:48:16;4.70;;;2.70;;
6017;SDS011;3037;51.068;13.780;2022-10-22T13:50:45;2.03;;;1.90;;
6017;SDS011;3037;51.068;13.780;2022-10-22T13:53:16;1.77;;;1.67;;
6017;SDS011;3037;51.068;13.780;2022-10-22T13:55:49;1.80;;;1.10;;
6017;SDS011;3037;51.068;13.780;2022-10-22T13:58:16;1.53;;;1.23;;
6017;SDS011;3037;51.068;13.780;2022-10-22T14:00:44;1.03;;;1.03;;
6017;SDS011;3037;51.068;13.780;2022-10-22T14:03:16;1.40;;;1.30;;
6017;SDS011;3037;51.068;13.780;2022-10-22T14:05:44;2.23;;;1.30;;
6017;SDS011;3037;51.068;13.780;2022-10-22T14:08:12;1.43;;;1.27;;
6017;SDS011;3037;51.068;13.780;2022-10-22T14:10:40;1.33;;;1.23;;
6017;SDS011;3037;51.068;13.780;2022-10-22T14:13:06;1.83;;;1.30;;
6017;SDS011;3037;51.068;13.780;2022-10-22T14:15:32;4.10;;;1.30;;
6017;SDS011;3037;51.068;13.780;2022-10-22T14:17:58;2.80;;;1.37;;
6017;SDS011;3037;51.068;13.780;2022-10-22T14:20:28;1.43;;;1.33;;
6017;SDS011;3037;51.068;13.780;2022-10-22T14:22:55;3.13;;;1.40;;
6017;SDS011;3037;51.068;13.780;2022-10-22T14:25:24;1.00;;;1.00;;
6017;SDS011;3037;51.068;13.780;2022-10-22T14:27:50;2.30;;;1.47;;
6017;SDS011;3037;51.068;13.780;2022-10-22T14:30:21;1.27;;;1.20;;
6017;SDS011;3037;51.068;13.780;2022-10-22T14:32:50;1.57;;;1.40;;
6017;SDS011;3037;51.068;13.780;2022-10-22T14:35:17;1.70;;;1.60;;
6017;SDS011;3037;51.068;13.780;2022-10-22T14:37:44;1.10;;;1.10;;
6017;SDS011;3037;51.068;13.780;2022-10-22T14:40:15;3.90;;;1.37;;
6017;SDS011;3037;51.068;13.780;2022-10-22T14:42:43;1.20;;;1.20;;
6017;SDS011;3037;51.068;13.780;2022-10-22T14:45:15;1.30;;;1.27;;
6017;SDS011;3037;51.068;13.780;2022-10-22T14:47:49;4.53;;;2.57;;
6017;SDS011;3037;51.068;13.780;2022-10-22T14:50:16;1.40;;;1.30;;
6017;SDS011;3037;51.068;13.780;2022-10-22T14:52:42;1.93;;;1.50;;
6017;SDS011;3037;51.068;13.780;2022-10-22T14:55:09;1.03;;;1.03;;
6017;SDS011;3037;51.068;13.780;2022-10-22T14:57:35;1.77;;;1.50;;
6017;SDS011;3037;51.068;13.780;2022-10-22T15:00:03;1.10;;;1.10;;
6017;SDS011;3037;51.068;13.780;2022-10-22T15:02:31;1.40;;;1.30;;
6017;SDS011;3037;51.068;13.780;2022-10-22T15:04:56;5.33;;;1.10;;
6017;SDS011;3037;51.068;13.780;2022-10-22T15:07:22;0.90;;;0.90;;
6017;SDS011;3037;51.068;13.780;2022-10-22T15:09:48;2.73;;;1.20;;
6017;SDS011;3037;51.068;13.780;2022-10-22T15:12:14;5.53;;;1.53;;
6017;SDS011;3037;51.068;13.780;2022-10-22T15:14:41;1.90;;;1.50;;
6017;SDS011;3037;51.068;13.780;2022-10-22T15:17:06;1.00;;;1.00;;
6017;SDS011;3037;51.068;13.780;2022-10-22T15:19:32;1.60;;;1.50;;
6017;SDS011;3037;51.068;13.780;2022-10-22T15:21:57;1.47;;;1.37;;
6017;SDS011;3037;51.068;13.780;2022-10-22T15:24:23;2.57;;;1.60;;
6017;SDS011;3037;51.068;13.780;2022-10-22T15:26:48;3.40;;;1.90;;
6017;SDS011;3037;51.068;13.780;2022-10-22T15:29:17;1.33;;;1.33;;
6017;SDS011;3037;51.068;13.780;2022-10-22T15:31:46;4.10;;;1.20;;
6017;SDS011;3037;51.068;13.780;2022-10-22T15:34:17;3.07;;;1.50;;
6017;SDS011;3037;51.068;13.780;2022-10-22T15:36:55;2.73;;;1.60;;
6017;SDS011;3037;51.068;13.780;2022-10-22T15:39:22;5.57;;;2.20;;
6017;SDS011;3037;51.068;13.780;2022-10-22T15:41:48;3.40;;;1.60;;
6017;SDS011;3037;51.068;13.780;2022-10-22T15:44:15;1.67;;;1.50;;
6017;SDS011;3037;51.068;13.780;2022-10-22T15:46:43;12.10;;;2.03;;
6017;SDS011;3037;51.068;13.780;2022-10-22T15:49:08;1.83;;;1.73;;
6017;SDS011;3037;51.068;13.780;2022-10-22T15:51:34;7.40;;;2.60;;
6017;SDS011;3037;51.068;13.780;2022-10-22T15:54:00;4.20;;;2.00;;
6017;SDS011;3037;51.068;13.780;2022-10-22T15:56:26;1.53;;;1.53;;
6017;SDS011;3037;51.068;13.780;2022-10-22T15:58:54;2.17;;;2.07;;
6017;SDS011;3037;51.068;13.780;2022-10-22T16:01:21;2.20;;;1.60;;
6017;SDS011;3037;51.068;13.780;2022-10-22T16:03:49;2.70;;;2.03;;
6017;SDS011;3037;51.068;13.780;2022-10-22T16:06:27;3.37;;;3.07;;
6017;SDS011;3037;51.068;13.780;2022-10-22T16:08:55;6.33;;;5.70;;
6017;SDS011;3037;51.068;13.780;2022-10-22T16:11:21;9.83;;;5.87;;
6017;SDS011;3037;51.068;13.780;2022-10-22T16:13:47;10.90;;;8.80;;
6017;SDS011;3037;51.068;13.780;2022-10-22T16:16:16;13.80;;;9.43;;
6017;SDS011;3037;51.068;13.780;2022-10-22T16:18:41;18.73;;;11.23;;
6017;SDS011;3037;51.068;13.780;2022-10-22T16:21:10;15.73;;;12.40;;